Time;durP1;ratioP1;P1;durP2;ratioP2;P2;SDS_P1;SDS_P2;PMS_P1;PMS_P2;Temp;Humidity;BMP_temperature;BMP_pressure;BME280_temperature;BME280_humidity;BME280_pressure;Samples;Min_cycle;Max_cycle;Signal;HPM_P1;HPM_P2
2021/10/14 00:02:04;;;;;;;7.95;5.43;;;;;;;;;;5034380;28;20063;-53
2021/10/14 00:04:32;;;;;;;9.82;4.93;;;;;;;;;;5051663;28;20045;-50
2021/10/14 00:06:58;;;;;;;6.97;5.03;;;;;;;;;;5052814;28;20382;-50
2021/10/14 00:09:25;;;;;;;8.85;5.10;;;;;;;;;;5040308;28;20535;-53
2021/10/14 00:11:52;;;;;;;7.43;4.78;;;;;;;;;;5040962;28;20071;-54
2021/10/14 00:14:19;;;;;;;8.40;5.05;;;;;;;;;;5052198;28;20047;-50
2021/10/14 00:16:45;;;;;;;7.85;4.45;;;;;;;;;;5051778;28;20044;-52
2021/10/14 00:19:12;;;;;;;8.30;4.93;;;;;;;;;;5043050;28;20086;-53
2021/10/14 00:21:39;;;;;;;7.95;5.07;;;;;;;;;;5050880;28;20047;-52
2021/10/14 00:24:06;;;;;;;8.40;5.20;;;;;;;;;;5049819;28;20398;-52
2021/10/14 00:26:32;;;;;;;7.13;5.07;;;;;;;;;;5046460;28;20036;-51
2021/10/14 00:28:59;;;;;;;8.60;5.40;;;;;;;;;;5049450;28;20423;-51
2021/10/14 00:31:28;;;;;;;7.70;5.25;;;;;;;;;;5033048;28;20052;-49
2021/10/14 00:33:56;;;;;;;8.20;5.20;;;;;;;;;;5047569;28;20037;-52
2021/10/14 00:36:24;;;;;;;8.68;5.50;;;;;;;;;;5051510;28;20047;-51
2021/10/14 00:38:50;;;;;;;7.75;5.10;;;;;;;;;;5045323;28;20040;-49
2021/10/14 00:41:17;;;;;;;8.23;5.45;;;;;;;;;;5038434;28;20132;-54
2021/10/14 00:43:44;;;;;;;7.32;4.95;;;;;;;;;;5049783;28;20359;-54
2021/10/14 00:46:17;;;;;;;8.02;5.10;;;;;;;;;;5050246;28;20382;-53
2021/10/14 00:48:49;;;;;;;8.18;5.03;;;;;;;;;;5051189;28;20063;-54
2021/10/14 00:51:16;;;;;;;9.00;5.38;;;;;;;;;;5048913;28;20052;-54
2021/10/14 00:53:43;;;;;;;8.55;5.20;;;;;;;;;;5050286;28;20045;-54
2021/10/14 00:56:10;;;;;;;11.10;5.70;;;;;;;;;;5040996;28;20045;-53
2021/10/14 00:58:37;;;;;;;7.63;5.43;;;;;;;;;;5043351;28;20139;-55
2021/10/14 01:01:04;;;;;;;9.68;5.80;;;;;;;;;;5046000;28;20102;-53
2021/10/14 01:03:31;;;;;;;8.60;6.13;;;;;;;;;;5050997;28;20048;-54
2021/10/14 01:05:59;;;;;;;7.90;5.22;;;;;;;;;;5062377;28;20128;-54
2021/10/14 01:08:25;;;;;;;11.32;6.63;;;;;;;;;;5049449;28;20041;-54
2021/10/14 01:10:52;;;;;;;10.25;5.93;;;;;;;;;;5045329;28;20037;-53
2021/10/14 01:13:19;;;;;;;9.50;6.32;;;;;;;;;;5050268;28;20420;-53
2021/10/14 01:15:46;;;;;;;8.80;5.65;;;;;;;;;;5048957;28;20128;-54
2021/10/14 01:18:13;;;;;;;10.07;5.78;;;;;;;;;;5043089;28;20495;-54
2021/10/14 01:20:40;;;;;;;10.02;5.88;;;;;;;;;;5045708;28;20044;-54
2021/10/14 01:23:07;;;;;;;8.07;5.05;;;;;;;;;;5050257;28;20454;-54
2021/10/14 01:25:34;;;;;;;8.48;5.75;;;;;;;;;;5051166;28;20041;-52
2021/10/14 01:28:01;;;;;;;9.40;6.15;;;;;;;;;;5040522;28;20410;-54
2021/10/14 01:30:28;;;;;;;8.82;5.90;;;;;;;;;;5033775;28;20051;-52
2021/10/14 01:32:55;;;;;;;10.75;6.55;;;;;;;;;;5049487;28;20516;-51
2021/10/14 01:35:21;;;;;;;11.35;5.70;;;;;;;;;;5049047;28;20049;-54
2021/10/14 01:37:48;;;;;;;11.00;6.80;;;;;;;;;;5044134;28;20471;-54
2021/10/14 01:40:15;;;;;;;8.68;5.80;;;;;;;;;;5044873;28;20041;-50
2021/10/14 01:42:42;;;;;;;8.57;5.70;;;;;;;;;;5050823;28;20043;-52
2021/10/14 01:45:09;;;;;;;10.13;6.20;;;;;;;;;;5052993;28;20041;-53
2021/10/14 01:47:35;;;;;;;10.07;6.43;;;;;;;;;;5048711;28;20123;-51
2021/10/14 01:50:03;;;;;;;9.07;6.00;;;;;;;;;;5049595;28;20047;-50
2021/10/14 01:52:30;;;;;;;9.38;6.13;;;;;;;;;;5050442;28;20044;-53
2021/10/14 01:54:57;;;;;;;10.05;6.22;;;;;;;;;;5039402;28;20053;-51
2021/10/14 01:57:24;;;;;;;10.18;6.75;;;;;;;;;;5036153;28;20132;-51
2021/10/14 01:59:50;;;;;;;8.95;6.15;;;;;;;;;;5047460;28;20043;-54
2021/10/14 02:02:17;;;;;;;9.27;5.80;;;;;;;;;;5049682;28;20552;-49
2021/10/14 02:04:44;;;;;;;9.65;6.05;;;;;;;;;;5049544;28;20037;-49
2021/10/14 02:07:11;;;;;;;9.30;6.25;;;;;;;;;;5047742;28;20124;-48
2021/10/14 02:09:37;;;;;;;10.05;6.60;;;;;;;;;;5032973;28;20423;-49
2021/10/14 02:12:04;;;;;;;11.20;5.72;;;;;;;;;;5038621;28;20041;-49
2021/10/14 02:14:32;;;;;;;10.45;6.32;;;;;;;;;;5050479;28;20495;-52
2021/10/14 02:16:59;;;;;;;10.85;5.68;;;;;;;;;;5049574;28;20048;-48
2021/10/14 02:19:25;;;;;;;9.18;6.10;;;;;;;;;;5050342;28;20514;-53
2021/10/14 02:21:53;;;;;;;9.57;5.93;;;;;;;;;;5050857;28;20128;-51
2021/10/14 02:24:21;;;;;;;11.88;5.97;;;;;;;;;;5049513;28;20052;-52
2021/10/14 02:26:50;;;;;;;10.57;6.25;;;;;;;;;;5045674;28;20045;-53
2021/10/14 02:29:18;;;;;;;8.93;6.00;;;;;;;;;;5047085;28;20052;-51
2021/10/14 02:31:46;;;;;;;10.55;5.90;;;;;;;;;;5037061;28;20393;-52
2021/10/14 02:34:13;;;;;;;9.60;6.22;;;;;;;;;;5032804;28;20205;-49
2021/10/14 02:36:40;;;;;;;11.45;6.25;;;;;;;;;;5049967;28;20045;-50
2021/10/14 02:39:07;;;;;;;9.68;5.93;;;;;;;;;;5050515;28;20052;-52
2021/10/14 02:41:34;;;;;;;10.35;6.53;;;;;;;;;;5048885;28;20037;-51
2021/10/14 02:44:01;;;;;;;11.70;7.53;;;;;;;;;;5046131;28;20125;-49
2021/10/14 02:46:28;;;;;;;10.35;6.85;;;;;;;;;;5049291;28;20051;-53
2021/10/14 02:48:55;;;;;;;11.63;7.15;;;;;;;;;;5037987;28;20051;-52
2021/10/14 02:51:22;;;;;;;12.48;7.43;;;;;;;;;;5044959;28;20051;-51
2021/10/14 02:53:48;;;;;;;11.02;6.30;;;;;;;;;;5048620;28;20052;-53
2021/10/14 02:56:15;;;;;;;10.38;6.55;;;;;;;;;;5043544;28;20446;-55
2021/10/14 02:58:42;;;;;;;10.82;6.68;;;;;;;;;;5043621;28;20041;-56
2021/10/14 03:01:09;;;;;;;10.13;7.22;;;;;;;;;;5039516;28;20053;-53
2021/10/14 03:03:36;;;;;;;12.27;7.07;;;;;;;;;;5050522;28;20128;-54
2021/10/14 03:06:03;;;;;;;11.40;6.88;;;;;;;;;;5050712;28;20076;-56
2021/10/14 03:08:30;;;;;;;11.60;7.45;;;;;;;;;;5047923;28;20044;-54
2021/10/14 03:10:56;;;;;;;11.23;7.40;;;;;;;;;;5053116;28;20045;-53
2021/10/14 03:13:23;;;;;;;13.50;7.60;;;;;;;;;;5053055;28;20131;-54
2021/10/14 03:15:50;;;;;;;12.43;7.03;;;;;;;;;;5053384;28;20140;-54
2021/10/14 03:18:17;;;;;;;10.45;7.40;;;;;;;;;;5045012;28;20044;-50
2021/10/14 03:20:44;;;;;;;12.02;7.28;;;;;;;;;;5052689;28;20041;-51
2021/10/14 03:23:11;;;;;;;11.07;7.90;;;;;;;;;;5052607;28;20040;-52
2021/10/14 03:25:38;;;;;;;13.75;8.15;;;;;;;;;;5043296;28;20049;-53
2021/10/14 03:28:05;;;;;;;13.60;8.10;;;;;;;;;;5039638;28;20043;-49
2021/10/14 03:30:32;;;;;;;13.13;7.55;;;;;;;;;;5052054;28;20041;-52
2021/10/14 03:32:59;;;;;;;13.77;7.88;;;;;;;;;;5051895;28;20516;-49
2021/10/14 03:35:25;;;;;;;10.75;7.38;;;;;;;;;;5052900;28;20049;-50
2021/10/14 03:37:52;;;;;;;11.15;7.18;;;;;;;;;;5045755;28;20048;-55
2021/10/14 03:40:19;;;;;;;12.85;7.75;;;;;;;;;;5053767;28;20502;-52
2021/10/14 03:42:46;;;;;;;13.32;8.15;;;;;;;;;;5052470;28;20044;-54
2021/10/14 03:45:13;;;;;;;12.05;7.47;;;;;;;;;;5049384;28;20520;-53
2021/10/14 03:47:39;;;;;;;13.70;8.40;;;;;;;;;;5052455;28;20107;-54
2021/10/14 03:50:08;;;;;;;13.63;7.88;;;;;;;;;;5051133;28;20075;-53
2021/10/14 03:52:35;;;;;;;12.35;8.05;;;;;;;;;;5046864;28;20045;-55
2021/10/14 03:55:02;;;;;;;13.50;7.90;;;;;;;;;;5052387;28;20148;-53
2021/10/14 03:57:29;;;;;;;13.90;8.68;;;;;;;;;;5051007;28;20136;-54
2021/10/14 03:59:56;;;;;;;15.13;9.10;;;;;;;;;;5045562;28;20388;-54
2021/10/14 04:02:23;;;;;;;15.55;9.18;;;;;;;;;;5050939;28;20590;-53
2021/10/14 04:04:50;;;;;;;15.27;8.27;;;;;;;;;;5052637;28;20048;-54
2021/10/14 04:07:16;;;;;;;15.15;8.40;;;;;;;;;;5048183;28;20046;-53
2021/10/14 04:09:43;;;;;;;15.88;9.25;;;;;;;;;;5050350;28;20688;-54
2021/10/14 04:12:10;;;;;;;13.93;9.13;;;;;;;;;;5052408;28;20571;-54
2021/10/14 04:14:36;;;;;;;14.57;9.57;;;;;;;;;;5052461;28;20043;-55
2021/10/14 04:17:03;;;;;;;15.43;10.02;;;;;;;;;;5047177;28;20136;-55
2021/10/14 04:19:30;;;;;;;16.27;9.85;;;;;;;;;;5048330;28;20068;-55
2021/10/14 04:21:57;;;;;;;14.82;8.77;;;;;;;;;;5052004;28;20041;-55
2021/10/14 04:24:26;;;;;;;16.15;9.85;;;;;;;;;;5051744;28;20044;-54
2021/10/14 04:26:53;;;;;;;14.52;9.43;;;;;;;;;;5053111;28;20045;-52
2021/10/14 04:29:20;;;;;;;16.50;10.18;;;;;;;;;;5045612;28;20049;-55
2021/10/14 04:31:47;;;;;;;15.65;9.60;;;;;;;;;;5045066;28;20045;-55
2021/10/14 04:34:15;;;;;;;15.73;9.77;;;;;;;;;;5051417;28;20120;-55
2021/10/14 04:36:42;;;;;;;16.10;9.30;;;;;;;;;;5051878;28;20490;-54
2021/10/14 04:39:09;;;;;;;18.13;10.10;;;;;;;;;;5045568;28;20139;-53
2021/10/14 04:41:36;;;;;;;20.42;10.93;;;;;;;;;;5042210;28;20037;-55
2021/10/14 04:44:03;;;;;;;16.65;10.25;;;;;;;;;;5050850;28;20029;-55
2021/10/14 04:46:30;;;;;;;17.55;10.95;;;;;;;;;;5052116;28;20047;-52
2021/10/14 04:48:57;;;;;;;21.10;11.73;;;;;;;;;;5052257;28;20132;-53
2021/10/14 04:51:24;;;;;;;15.43;10.52;;;;;;;;;;5050645;28;20483;-51
2021/10/14 04:53:50;;;;;;;17.00;10.45;;;;;;;;;;5046236;28;20071;-53
2021/10/14 04:56:17;;;;;;;17.63;10.95;;;;;;;;;;5050504;28;20045;-54
2021/10/14 04:58:44;;;;;;;17.25;10.63;;;;;;;;;;5050030;28;20044;-53
2021/10/14 05:01:11;;;;;;;19.02;11.05;;;;;;;;;;5046565;28;20045;-53
2021/10/14 05:03:38;;;;;;;18.80;10.02;;;;;;;;;;5050995;28;20037;-54
2021/10/14 05:06:04;;;;;;;16.25;10.45;;;;;;;;;;5052203;28;20055;-54
2021/10/14 05:08:31;;;;;;;19.50;11.00;;;;;;;;;;5051130;28;20072;-52
2021/10/14 05:10:58;;;;;;;16.92;10.57;;;;;;;;;;5048813;28;20490;-54
2021/10/14 05:13:25;;;;;;;18.65;10.55;;;;;;;;;;5051684;28;20118;-50
2021/10/14 05:15:51;;;;;;;16.95;10.55;;;;;;;;;;5050280;28;20040;-50
2021/10/14 05:18:18;;;;;;;16.85;10.35;;;;;;;;;;5034081;28;20445;-53
2021/10/14 05:20:45;;;;;;;17.17;10.52;;;;;;;;;;5039589;28;20063;-53
2021/10/14 05:23:12;;;;;;;17.60;10.15;;;;;;;;;;5050714;28;20045;-55
2021/10/14 05:25:40;;;;;;;18.13;10.65;;;;;;;;;;5049960;28;20576;-51
2021/10/14 05:28:07;;;;;;;16.15;9.88;;;;;;;;;;5046996;28;20124;-54
2021/10/14 05:30:33;;;;;;;16.85;9.57;;;;;;;;;;5037354;28;20486;-54
2021/10/14 05:33:00;;;;;;;18.17;9.93;;;;;;;;;;5051014;28;20115;-52
2021/10/14 05:35:35;;;;;;;15.00;10.27;;;;;;;;;;5048574;28;20491;-52
2021/10/14 05:38:02;;;;;;;16.83;9.40;;;;;;;;;;5047104;28;20043;-52
2021/10/14 05:40:29;;;;;;;16.52;10.38;;;;;;;;;;5047574;28;20355;-54
2021/10/14 05:42:56;;;;;;;15.88;9.90;;;;;;;;;;5033327;28;20037;-56
2021/10/14 05:45:22;;;;;;;17.80;10.02;;;;;;;;;;5047663;28;20037;-55
2021/10/14 05:47:49;;;;;;;17.30;10.27;;;;;;;;;;5048429;28;20119;-53
2021/10/14 05:50:16;;;;;;;18.20;10.10;;;;;;;;;;5049547;28;20131;-54
2021/10/14 05:52:43;;;;;;;16.02;9.85;;;;;;;;;;5046159;28;20098;-51
2021/10/14 05:55:10;;;;;;;17.48;10.05;;;;;;;;;;5044763;28;20040;-52
2021/10/14 05:57:37;;;;;;;14.77;9.45;;;;;;;;;;5049240;28;20047;-51
2021/10/14 06:00:04;;;;;;;16.05;9.48;;;;;;;;;;5037186;28;20499;-53
2021/10/14 06:02:31;;;;;;;16.60;9.70;;;;;;;;;;5049873;28;20063;-55
2021/10/14 06:04:58;;;;;;;17.90;10.45;;;;;;;;;;5049860;28;20041;-51
2021/10/14 06:07:25;;;;;;;17.75;10.27;;;;;;;;;;5045083;28;20457;-52
2021/10/14 06:09:52;;;;;;;16.77;9.90;;;;;;;;;;5050732;28;20075;-53
2021/10/14 06:12:20;;;;;;;15.25;9.23;;;;;;;;;;5049245;28;20123;-53
2021/10/14 06:14:47;;;;;;;20.33;9.60;;;;;;;;;;5047731;28;20132;-54
2021/10/14 06:17:14;;;;;;;16.17;10.13;;;;;;;;;;5045880;28;20044;-54
2021/10/14 06:19:40;;;;;;;16.50;9.52;;;;;;;;;;5048433;28;20040;-53
2021/10/14 06:22:07;;;;;;;14.63;8.50;;;;;;;;;;5048502;28;20064;-55
2021/10/14 06:24:34;;;;;;;16.27;10.20;;;;;;;;;;5047827;28;20144;-55
2021/10/14 06:27:00;;;;;;;15.63;9.13;;;;;;;;;;5048466;28;20041;-54
2021/10/14 06:29:27;;;;;;;18.45;9.65;;;;;;;;;;5037060;28;20049;-54
2021/10/14 06:31:54;;;;;;;14.30;9.20;;;;;;;;;;5049137;28;20051;-52
2021/10/14 06:34:21;;;;;;;14.40;9.50;;;;;;;;;;5053055;28;20051;-53
2021/10/14 06:36:47;;;;;;;16.65;9.32;;;;;;;;;;5050084;28;20120;-51
2021/10/14 06:39:14;;;;;;;17.65;9.75;;;;;;;;;;5045266;28;20034;-51
2021/10/14 06:41:43;;;;;;;15.35;9.27;;;;;;;;;;5043300;28;20045;-50
2021/10/14 06:44:12;;;;;;;17.83;9.48;;;;;;;;;;5053739;28;20052;-53
2021/10/14 06:46:39;;;;;;;15.88;9.60;;;;;;;;;;5053085;28;20506;-49
2021/10/14 06:49:06;;;;;;;16.27;9.00;;;;;;;;;;5046816;28;20041;-52
2021/10/14 06:51:33;;;;;;;19.98;9.60;;;;;;;;;;5053496;28;20041;-51
2021/10/14 06:54:00;;;;;;;16.17;8.77;;;;;;;;;;5050257;28;20059;-50
2021/10/14 06:56:27;;;;;;;17.05;9.15;;;;;;;;;;5049354;28;20243;-50
2021/10/14 06:58:53;;;;;;;23.15;9.82;;;;;;;;;;5053520;28;20047;-49
2021/10/14 07:01:20;;;;;;;18.30;9.63;;;;;;;;;;5056637;28;20055;-50
2021/10/14 07:03:47;;;;;;;18.35;10.43;;;;;;;;;;5061155;28;20410;-48
2021/10/14 07:06:15;;;;;;;19.23;9.35;;;;;;;;;;5046717;28;20072;-50
2021/10/14 07:08:42;;;;;;;16.65;9.23;;;;;;;;;;5051511;28;20437;-45
2021/10/14 07:11:09;;;;;;;18.85;9.05;;;;;;;;;;5046225;28;20072;-46
2021/10/14 07:13:37;;;;;;;18.27;10.85;;;;;;;;;;5050097;28;20463;-47
2021/10/14 07:16:04;;;;;;;18.20;9.10;;;;;;;;;;5057064;28;20544;-46
2021/10/14 07:18:31;;;;;;;16.52;9.23;;;;;;;;;;5054565;28;20045;-51
2021/10/14 07:20:58;;;;;;;14.85;8.30;;;;;;;;;;5050966;28;20045;-48
2021/10/14 07:23:25;;;;;;;17.02;9.63;;;;;;;;;;5052069;28;20075;-46
2021/10/14 07:25:51;;;;;;;16.13;8.95;;;;;;;;;;5037746;28;20040;-47
2021/10/14 07:28:18;;;;;;;14.57;9.23;;;;;;;;;;5051047;28;20120;-49
2021/10/14 07:30:45;;;;;;;13.50;9.35;;;;;;;;;;5045276;28;20036;-47
2021/10/14 07:33:12;;;;;;;14.63;9.32;;;;;;;;;;5051240;28;20135;-52
2021/10/14 07:35:40;;;;;;;17.95;8.90;;;;;;;;;;5041917;28;20045;-50
2021/10/14 07:38:09;;;;;;;15.38;9.48;;;;;;;;;;5050751;28;20040;-50
2021/10/14 07:40:40;;;;;;;15.40;9.05;;;;;;;;;;5051912;28;20127;-50
2021/10/14 07:43:07;;;;;;;13.70;8.45;;;;;;;;;;5051923;28;20029;-52
2021/10/14 07:45:35;;;;;;;15.95;9.00;;;;;;;;;;5048862;28;20029;-52
2021/10/14 07:48:02;;;;;;;14.85;8.77;;;;;;;;;;5049808;28;20041;-49
2021/10/14 07:50:29;;;;;;;13.68;8.52;;;;;;;;;;5053681;28;20041;-51
2021/10/14 07:52:56;;;;;;;16.08;8.30;;;;;;;;;;5051226;28;20075;-53
2021/10/14 07:55:23;;;;;;;14.40;8.93;;;;;;;;;;5047288;28;20043;-49
2021/10/14 07:57:49;;;;;;;19.17;9.07;;;;;;;;;;5049260;28;20049;-49
2021/10/14 08:00:16;;;;;;;13.90;8.27;;;;;;;;;;5049743;28;20049;-51
2021/10/14 08:02:47;;;;;;;12.70;8.10;;;;;;;;;;5051134;28;20490;-51
2021/10/14 08:05:17;;;;;;;13.30;7.60;;;;;;;;;;5052302;28;20044;-49
2021/10/14 08:07:45;;;;;;;11.10;7.30;;;;;;;;;;5049153;28;20466;-51
2021/10/14 08:10:11;;;;;;;10.73;7.32;;;;;;;;;;5051874;28;20123;-50
2021/10/14 08:12:38;;;;;;;10.93;7.45;;;;;;;;;;5053018;28;20124;-50
2021/10/14 08:15:05;;;;;;;11.88;6.97;;;;;;;;;;5052713;28;20065;-52
2021/10/14 08:17:32;;;;;;;12.60;7.18;;;;;;;;;;5047005;28;20405;-50
2021/10/14 08:19:59;;;;;;;12.48;7.30;;;;;;;;;;5052961;28;20307;-51
2021/10/14 08:22:26;;;;;;;10.27;5.80;;;;;;;;;;5053019;28;20051;-51
2021/10/14 08:24:55;;;;;;;10.10;6.10;;;;;;;;;;5045819;28;20049;-51
2021/10/14 08:27:23;;;;;;;8.63;6.05;;;;;;;;;;5050374;28;20405;-50
2021/10/14 08:29:49;;;;;;;9.73;5.82;;;;;;;;;;5046241;28;20059;-49
2021/10/14 08:32:17;;;;;;;8.55;5.20;;;;;;;;;;5049233;28;20076;-47
2021/10/14 08:34:43;;;;;;;12.68;5.70;;;;;;;;;;5052655;28;20041;-49
2021/10/14 08:37:10;;;;;;;8.38;5.47;;;;;;;;;;5049988;28;20102;-50
2021/10/14 08:39:37;;;;;;;10.68;5.70;;;;;;;;;;5033976;28;20061;-47
2021/10/14 08:42:04;;;;;;;8.70;4.53;;;;;;;;;;5046237;28;20048;-47
2021/10/14 08:44:31;;;;;;;9.32;4.93;;;;;;;;;;5051599;28;20371;-48
2021/10/14 08:46:59;;;;;;;6.63;4.57;;;;;;;;;;5033779;28;20041;-45
2021/10/14 08:49:26;;;;;;;7.80;4.40;;;;;;;;;;5051544;28;20072;-47
2021/10/14 08:51:53;;;;;;;7.63;4.60;;;;;;;;;;5052890;28;20124;-46
2021/10/14 08:54:20;;;;;;;7.22;4.05;;;;;;;;;;5042709;28;20417;-46
2021/10/14 08:56:48;;;;;;;6.72;4.38;;;;;;;;;;5034789;28;20109;-50
2021/10/14 08:59:18;;;;;;;7.20;4.85;;;;;;;;;;5048103;28;20049;-48
2021/10/14 09:02:03;;;;;;;6.63;3.83;;;;;;;;;;5035342;28;20045;-48
2021/10/14 09:04:32;;;;;;;6.38;4.20;;;;;;;;;;5049057;28;20092;-47
2021/10/14 09:07:28;;;;;;;9.23;4.10;;;;;;;;;;5049286;28;20041;-46
2021/10/14 09:09:59;;;;;;;6.00;3.80;;;;;;;;;;5027571;28;20080;-46
2021/10/14 09:12:31;;;;;;;5.97;4.38;;;;;;;;;;5046543;28;20064;-47
2021/10/14 09:15:18;;;;;;;7.40;4.32;;;;;;;;;;5048131;28;20068;-48
2021/10/14 09:17:47;;;;;;;6.07;3.45;;;;;;;;;;5046091;28;20486;-47
2021/10/14 09:20:29;;;;;;;7.60;3.85;;;;;;;;;;5061912;28;20041;-47
2021/10/14 09:22:57;;;;;;;5.55;3.80;;;;;;;;;;5053927;28;20633;-49
2021/10/14 09:25:47;;;;;;;8.35;3.83;;;;;;;;;;5049986;28;20486;-49
2021/10/14 09:28:16;;;;;;;5.53;3.67;;;;;;;;;;5039420;28;20044;-48
2021/10/14 09:30:52;;;;;;;6.28;3.70;;;;;;;;;;5035044;28;20482;-51
2021/10/14 09:33:35;;;;;;;6.38;3.95;;;;;;;;;;5052162;28;20045;-48
2021/10/14 09:36:11;;;;;;;6.07;3.88;;;;;;;;;;5048512;28;20562;-49
2021/10/14 09:38:38;;;;;;;6.25;3.80;;;;;;;;;;5032178;28;20045;-52
2021/10/14 09:41:06;;;;;;;6.03;3.45;;;;;;;;;;5042248;28;20111;-49
2021/10/14 09:43:33;;;;;;;6.13;3.50;;;;;;;;;;5048518;28;20045;-51
2021/10/14 09:46:00;;;;;;;5.00;3.13;;;;;;;;;;5042628;28;20147;-47
2021/10/14 09:48:27;;;;;;;6.35;3.05;;;;;;;;;;5049961;28;20044;-49
2021/10/14 09:50:54;;;;;;;5.88;3.60;;;;;;;;;;5051806;28;20045;-47
2021/10/14 09:53:22;;;;;;;5.90;3.80;;;;;;;;;;5041716;28;20065;-49
2021/10/14 09:55:49;;;;;;;6.72;3.50;;;;;;;;;;5047361;28;20079;-49
2021/10/14 09:58:16;;;;;;;6.93;3.70;;;;;;;;;;5050998;28;20414;-48
2021/10/14 10:00:45;;;;;;;7.13;3.80;;;;;;;;;;5044910;28;20167;-49
2021/10/14 10:03:19;;;;;;;5.97;3.47;;;;;;;;;;5043746;28;20064;-48
2021/10/14 10:05:47;;;;;;;5.45;3.38;;;;;;;;;;5052184;28;20087;-48
2021/10/14 10:08:34;;;;;;;6.63;3.60;;;;;;;;;;5057489;28;20036;-48
2021/10/14 10:11:06;;;;;;;6.30;3.85;;;;;;;;;;5055523;28;20052;-48
2021/10/14 10:13:33;;;;;;;8.25;4.03;;;;;;;;;;5045337;28;20041;-49
2021/10/14 10:16:20;;;;;;;5.97;3.90;;;;;;;;;;5044217;28;20041;-49
2021/10/14 10:18:54;;;;;;;6.47;3.95;;;;;;;;;;5054441;28;20049;-49
2021/10/14 10:21:30;;;;;;;11.05;4.13;;;;;;;;;;5051987;28;20072;-49
2021/10/14 10:24:00;;;;;;;5.38;3.60;;;;;;;;;;5038341;28;20061;-47
2021/10/14 10:26:33;;;;;;;6.55;4.55;;;;;;;;;;5047368;28;20045;-49
2021/10/14 10:28:59;;;;;;;7.82;4.70;;;;;;;;;;5048169;28;20087;-50
2021/10/14 10:31:45;;;;;;;7.10;4.18;;;;;;;;;;5046450;28;20065;-46
2021/10/14 10:34:36;;;;;;;5.25;4.00;;;;;;;;;;5053513;28;20493;-48
2021/10/14 10:37:09;;;;;;;5.75;3.88;;;;;;;;;;5035605;28;20056;-50
2021/10/14 10:39:49;;;;;;;6.10;3.83;;;;;;;;;;5047922;28;20498;-47
2021/10/14 10:42:16;;;;;;;5.40;3.70;;;;;;;;;;5056066;28;20049;-51
2021/10/14 10:44:44;;;;;;;7.30;3.67;;;;;;;;;;5045177;28;20049;-52
2021/10/14 10:47:30;;;;;;;6.95;4.30;;;;;;;;;;5050189;28;20132;-52
2021/10/14 10:49:57;;;;;;;6.47;3.67;;;;;;;;;;5033850;28;20804;-49
2021/10/14 10:52:31;;;;;;;5.35;3.67;;;;;;;;;;5055346;28;20072;-49
2021/10/14 10:54:58;;;;;;;5.72;3.45;;;;;;;;;;5053809;28;20037;-50
2021/10/14 10:57:54;;;;;;;6.63;3.35;;;;;;;;;;5049791;28;20567;-50
2021/10/14 11:00:23;;;;;;;4.00;2.65;;;;;;;;;;5050882;28;20438;-51
2021/10/14 11:03:12;;;;;;;6.32;3.10;;;;;;;;;;5055260;28;20043;-48
2021/10/14 11:05:45;;;;;;;4.97;2.80;;;;;;;;;;5047594;28;20084;-53
2021/10/14 11:08:22;;;;;;;6.47;3.83;;;;;;;;;;5055092;28;20375;-51
2021/10/14 11:10:56;;;;;;;5.72;3.05;;;;;;;;;;5053797;28;20064;-49
2021/10/14 11:13:24;;;;;;;6.05;3.10;;;;;;;;;;5053939;28;20119;-53
2021/10/14 11:16:01;;;;;;;4.10;2.50;;;;;;;;;;5038736;28;20101;-50
2021/10/14 11:18:29;;;;;;;3.55;2.35;;;;;;;;;;5052024;28;20118;-51
2021/10/14 11:21:00;;;;;;;6.75;3.60;;;;;;;;;;5053537;28;20088;-53
2021/10/14 11:23:31;;;;;;;5.57;2.80;;;;;;;;;;5045119;28;20038;-52
2021/10/14 11:25:59;;;;;;;5.60;2.33;;;;;;;;;;5043195;28;20029;-52
2021/10/14 11:28:27;;;;;;;6.85;2.47;;;;;;;;;;5048459;28;20098;-50
2021/10/14 11:31:00;;;;;;;4.40;2.25;;;;;;;;;;5038483;28;20128;-52
2021/10/14 11:33:38;;;;;;;5.50;2.58;;;;;;;;;;5045699;28;20132;-52
2021/10/14 11:36:08;;;;;;;4.35;2.42;;;;;;;;;;5052928;28;20049;-54
2021/10/14 11:38:36;;;;;;;4.60;2.60;;;;;;;;;;5032442;28;20546;-52
2021/10/14 11:41:03;;;;;;;4.20;2.30;;;;;;;;;;5045844;28;20429;-53
2021/10/14 11:43:30;;;;;;;4.60;2.38;;;;;;;;;;5052004;28;20045;-52
2021/10/14 11:45:58;;;;;;;4.82;2.33;;;;;;;;;;5053382;28;20056;-52
2021/10/14 11:48:26;;;;;;;7.88;2.63;;;;;;;;;;5049485;28;20043;-53
2021/10/14 11:51:02;;;;;;;5.13;2.30;;;;;;;;;;5053646;28;20128;-52
2021/10/14 11:53:29;;;;;;;3.97;2.13;;;;;;;;;;5052357;28;20055;-52
2021/10/14 11:56:00;;;;;;;4.53;2.00;;;;;;;;;;5050754;28;20037;-53
2021/10/14 11:58:27;;;;;;;3.17;1.70;;;;;;;;;;5052978;28;20418;-52
2021/10/14 12:00:55;;;;;;;7.50;2.70;;;;;;;;;;5052817;28;20128;-53
2021/10/14 12:03:22;;;;;;;4.05;1.88;;;;;;;;;;5049039;28;20501;-53
2021/10/14 12:05:50;;;;;;;5.30;2.15;;;;;;;;;;5053484;28;20414;-53
2021/10/14 12:08:17;;;;;;;4.65;2.38;;;;;;;;;;5051530;28;20054;-51
2021/10/14 12:10:48;;;;;;;4.32;1.92;;;;;;;;;;5047566;28;20120;-50
2021/10/14 12:13:15;;;;;;;5.45;2.08;;;;;;;;;;5053204;28;20126;-53
2021/10/14 12:15:43;;;;;;;4.22;2.20;;;;;;;;;;5052668;28;20033;-53
2021/10/14 12:18:26;;;;;;;3.55;2.05;;;;;;;;;;5051222;28;20086;-53
2021/10/14 12:20:58;;;;;;;4.85;2.10;;;;;;;;;;5052477;28;20044;-54
2021/10/14 12:23:29;;;;;;;4.32;2.05;;;;;;;;;;5053000;28;20111;-54
2021/10/14 12:26:14;;;;;;;4.40;2.17;;;;;;;;;;5041746;28;20136;-50
2021/10/14 12:28:44;;;;;;;4.50;2.03;;;;;;;;;;5053751;28;20033;-54
2021/10/14 12:31:12;;;;;;;4.55;2.28;;;;;;;;;;5045429;28;20433;-46
2021/10/14 12:33:39;;;;;;;6.00;2.30;;;;;;;;;;5051507;28;20128;-47
2021/10/14 12:36:06;;;;;;;4.18;2.20;;;;;;;;;;5052307;28;20076;-49
2021/10/14 12:38:37;;;;;;;4.60;2.20;;;;;;;;;;5040664;28;20527;-47
2021/10/14 12:41:06;;;;;;;5.10;2.40;;;;;;;;;;5045903;28;20494;-48
2021/10/14 12:43:37;;;;;;;4.72;2.40;;;;;;;;;;5050922;28;20478;-48
2021/10/14 12:46:22;;;;;;;3.80;2.50;;;;;;;;;;5047830;28;20457;-48
2021/10/14 12:49:02;;;;;;;6.45;2.47;;;;;;;;;;5050954;28;20111;-48
2021/10/14 12:51:39;;;;;;;6.72;2.67;;;;;;;;;;5071069;28;20131;-50
2021/10/14 12:54:12;;;;;;;5.03;2.90;;;;;;;;;;5054154;28;20074;-49
2021/10/14 12:56:40;;;;;;;4.18;2.30;;;;;;;;;;5047430;28;20045;-53
2021/10/14 12:59:08;;;;;;;5.20;2.42;;;;;;;;;;5050488;28;20049;-49
2021/10/14 13:01:35;;;;;;;2.75;1.90;;;;;;;;;;5044187;28;20045;-50
2021/10/14 13:04:03;;;;;;;3.03;1.65;;;;;;;;;;5051108;28;20048;-52
2021/10/14 13:06:29;;;;;;;2.35;1.27;;;;;;;;;;5051530;28;20045;-51
2021/10/14 13:09:01;;;;;;;3.50;1.52;;;;;;;;;;5051117;28;20047;-50
2021/10/14 13:11:31;;;;;;;6.80;1.50;;;;;;;;;;5046855;28;20092;-51
2021/10/14 13:13:58;;;;;;;2.47;1.40;;;;;;;;;;5050501;28;20029;-48
2021/10/14 13:16:25;;;;;;;2.95;1.70;;;;;;;;;;5043557;28;20502;-51
2021/10/14 13:18:52;;;;;;;4.55;1.50;;;;;;;;;;5038189;28;20063;-48
2021/10/14 13:21:19;;;;;;;8.23;1.80;;;;;;;;;;5050567;28;20043;-48
2021/10/14 13:23:45;;;;;;;3.38;1.75;;;;;;;;;;5051723;28;20041;-52
2021/10/14 13:26:12;;;;;;;3.25;1.70;;;;;;;;;;5050365;28;20413;-49
2021/10/14 13:28:39;;;;;;;4.90;2.00;;;;;;;;;;5051956;28;20123;-48
2021/10/14 13:31:08;;;;;;;3.08;1.70;;;;;;;;;;5048552;28;20044;-51
2021/10/14 13:33:37;;;;;;;3.72;1.77;;;;;;;;;;5050752;28;20041;-52
2021/10/14 13:36:17;;;;;;;4.90;1.80;;;;;;;;;;5049987;28;20047;-50
2021/10/14 13:38:46;;;;;;;3.72;1.75;;;;;;;;;;5046249;28;20045;-49
2021/10/14 13:41:19;;;;;;;6.25;1.70;;;;;;;;;;5050482;28;20512;-49
2021/10/14 13:43:49;;;;;;;3.58;1.77;;;;;;;;;;5047148;28;20041;-53
2021/10/14 13:46:16;;;;;;;4.95;1.80;;;;;;;;;;5031715;28;20045;-50
2021/10/14 13:48:42;;;;;;;3.78;1.75;;;;;;;;;;5040538;28;20041;-54
2021/10/14 13:51:09;;;;;;;2.63;1.45;;;;;;;;;;5050217;28;20065;-53
2021/10/14 13:53:36;;;;;;;4.00;1.73;;;;;;;;;;5050472;28;20041;-54
2021/10/14 13:56:03;;;;;;;5.47;2.55;;;;;;;;;;5049164;28;20117;-51
2021/10/14 13:58:30;;;;;;;4.30;1.75;;;;;;;;;;5036963;28;20098;-48
2021/10/14 14:01:01;;;;;;;3.58;1.70;;;;;;;;;;5035002;28;20434;-51
2021/10/14 14:03:47;;;;;;;5.88;1.80;;;;;;;;;;5043999;28;20045;-50
2021/10/14 14:06:14;;;;;;;2.95;1.60;;;;;;;;;;5050454;28;20080;-51
2021/10/14 14:08:41;;;;;;;3.13;1.73;;;;;;;;;;5049731;28;20040;-51
2021/10/14 14:11:09;;;;;;;2.45;1.70;;;;;;;;;;5050048;28;20049;-51
2021/10/14 14:13:36;;;;;;;4.85;1.85;;;;;;;;;;5051685;28;20047;-52
2021/10/14 14:16:03;;;;;;;4.53;1.75;;;;;;;;;;5049788;28;20551;-53
2021/10/14 14:18:30;;;;;;;4.78;1.92;;;;;;;;;;5031783;28;20502;-52
2021/10/14 14:20:57;;;;;;;3.75;2.00;;;;;;;;;;5037302;28;20601;-53
2021/10/14 14:23:24;;;;;;;2.95;1.65;;;;;;;;;;5051298;28;20041;-52
2021/10/14 14:25:51;;;;;;;5.25;2.00;;;;;;;;;;5049703;28;20398;-49
2021/10/14 14:28:18;;;;;;;3.17;1.90;;;;;;;;;;5030453;28;20127;-52
2021/10/14 14:30:45;;;;;;;2.90;1.83;;;;;;;;;;5040601;28;20392;-49
2021/10/14 14:33:12;;;;;;;3.55;2.00;;;;;;;;;;5030695;28;20124;-50
2021/10/14 14:35:39;;;;;;;4.30;2.20;;;;;;;;;;5038423;28;21845;-50
2021/10/14 14:38:06;;;;;;;3.90;2.15;;;;;;;;;;5043018;28;20127;-53
2021/10/14 14:40:33;;;;;;;5.55;2.22;;;;;;;;;;5041704;28;20044;-50
2021/10/14 14:43:00;;;;;;;4.00;2.03;;;;;;;;;;5044820;28;20040;-49
2021/10/14 14:45:27;;;;;;;3.38;2.20;;;;;;;;;;5045231;28;20064;-49